Time;durP1;ratioP1;P1;durP2;ratioP2;P2;SDS_P1;SDS_P2;PMS_P1;PMS_P2;Temp;Humidity;BMP_temperature;BMP_pressure;BME280_temperature;BME280_humidity;BME280_pressure;Samples;Min_cycle;Max_cycle;Signal;HPM_P1;HPM_P2
2021/12/28 00:01:54;;;;;;;49.00;24.30;;;;;;;;;;4407136;32;20516;-80
2021/12/28 00:04:20;;;;;;;31.83;17.10;;;;;;;;;;4408281;32;20197;-80
2021/12/28 00:06:45;;;;;;;36.10;18.50;;;;;;;;;;4407871;32;20214;-82
2021/12/28 00:09:11;;;;;;;38.63;20.03;;;;;;;;;;4407926;32;20190;-81
2021/12/28 00:11:36;;;;;;;46.37;23.87;;;;;;;;;;4407393;32;20213;-85
2021/12/28 00:14:04;;;;;;;52.93;26.30;;;;;;;;;;4407822;32;20197;-80
2021/12/28 00:19:14;;;;;;;87.00;39.93;;;;;;;;;;4410840;32;20262;-81
2021/12/28 00:21:39;;;;;;;66.93;30.57;;;;;;;;;;4411145;32;20237;-79
2021/12/28 00:24:05;;;;;;;60.87;30.20;;;;;;;;;;4413306;32;20241;-80
2021/12/28 00:26:31;;;;;;;60.53;30.43;;;;;;;;;;4397102;32;20233;-86
2021/12/28 00:28:56;;;;;;;63.80;29.50;;;;;;;;;;4412232;32;20269;-82
2021/12/28 00:31:24;;;;;;;75.70;31.13;;;;;;;;;;4409811;32;20727;-80
2021/12/28 00:33:51;;;;;;;69.40;30.47;;;;;;;;;;4397120;32;20229;-79
2021/12/28 00:36:17;;;;;;;74.00;33.87;;;;;;;;;;4411593;32;20229;-78
2021/12/28 00:38:42;;;;;;;79.03;36.27;;;;;;;;;;4411117;32;20272;-78
2021/12/28 00:41:09;;;;;;;71.93;34.50;;;;;;;;;;4408280;32;20317;-80
2021/12/28 00:43:35;;;;;;;59.77;29.03;;;;;;;;;;4408432;32;20595;-80
2021/12/28 00:46:03;;;;;;;51.27;24.37;;;;;;;;;;4407100;32;20286;-82
2021/12/28 00:48:29;;;;;;;57.73;23.37;;;;;;;;;;4393537;32;20218;-79
2021/12/28 00:50:56;;;;;;;40.30;17.87;;;;;;;;;;4406816;32;20213;-80
2021/12/28 00:53:21;;;;;;;41.97;20.30;;;;;;;;;;4406564;32;20210;-80
2021/12/28 00:55:48;;;;;;;50.33;27.67;;;;;;;;;;4407089;32;20217;-85
2021/12/28 00:58:14;;;;;;;53.13;26.97;;;;;;;;;;4393987;32;20296;-80
2021/12/28 01:00:40;;;;;;;51.70;27.20;;;;;;;;;;4393024;32;20700;-79
2021/12/28 01:03:08;;;;;;;55.07;25.70;;;;;;;;;;4406499;32;20228;-84
2021/12/28 01:05:35;;;;;;;54.40;26.37;;;;;;;;;;4406782;32;20292;-80
2021/12/28 01:08:02;;;;;;;86.33;36.43;;;;;;;;;;4407295;32;20579;-82
2021/12/28 01:10:33;;;;;;;48.67;25.00;;;;;;;;;;4406781;32;20654;-78
2021/12/28 01:12:59;;;;;;;50.50;24.27;;;;;;;;;;4406542;32;20225;-81
2021/12/28 01:15:26;;;;;;;51.77;26.50;;;;;;;;;;4392732;32;20209;-79
2021/12/28 01:17:53;;;;;;;56.60;24.67;;;;;;;;;;4406578;32;20201;-80
2021/12/28 01:20:18;;;;;;;49.47;26.83;;;;;;;;;;4406828;32;20198;-86
2021/12/28 01:22:45;;;;;;;61.13;29.73;;;;;;;;;;4406363;32;20543;-84
2021/12/28 01:25:12;;;;;;;61.93;28.00;;;;;;;;;;4406854;32;20193;-86
2021/12/28 01:27:37;;;;;;;72.20;35.70;;;;;;;;;;4408547;32;20193;-81
2021/12/28 01:30:06;;;;;;;69.90;35.17;;;;;;;;;;4407580;32;20635;-80
2021/12/28 01:32:32;;;;;;;56.77;30.03;;;;;;;;;;4407660;32;20358;-81
2021/12/28 01:34:57;;;;;;;62.47;28.37;;;;;;;;;;4406815;32;20202;-80
2021/12/28 01:37:23;;;;;;;57.33;28.93;;;;;;;;;;4406413;32;20189;-81
2021/12/28 01:39:48;;;;;;;47.33;21.77;;;;;;;;;;4406834;32;20261;-80
2021/12/28 01:42:16;;;;;;;30.17;14.33;;;;;;;;;;4405866;32;20227;-80
2021/12/28 01:44:41;;;;;;;59.53;27.13;;;;;;;;;;4406750;32;20615;-82
2021/12/28 01:47:07;;;;;;;55.57;28.00;;;;;;;;;;4406643;32;20305;-86
2021/12/28 01:49:33;;;;;;;59.17;31.73;;;;;;;;;;4406264;32;20327;-82
2021/12/28 01:51:58;;;;;;;50.00;29.23;;;;;;;;;;4406317;32;20194;-81
2021/12/28 01:54:24;;;;;;;55.13;24.87;;;;;;;;;;4392771;32;20311;-85
2021/12/28 01:56:49;;;;;;;43.83;21.57;;;;;;;;;;4406639;32;20277;-80
2021/12/28 01:59:18;;;;;;;52.73;26.43;;;;;;;;;;4406682;32;20275;-82
2021/12/28 02:01:45;;;;;;;60.07;30.57;;;;;;;;;;4406303;32;20270;-81
2021/12/28 02:04:25;;;;;;;55.60;28.03;;;;;;;;;;4405280;32;20217;-81
2021/12/28 02:06:54;;;;;;;53.80;26.53;;;;;;;;;;4406642;32;20227;-85
2021/12/28 02:09:21;;;;;;;55.20;27.57;;;;;;;;;;4392540;32;20589;-86
2021/12/28 02:11:47;;;;;;;48.53;26.47;;;;;;;;;;4392024;32;20666;-85
2021/12/28 02:14:13;;;;;;;51.20;25.47;;;;;;;;;;4392421;32;20292;-81
2021/12/28 02:16:43;;;;;;;43.43;24.57;;;;;;;;;;4406912;32;20266;-83
2021/12/28 02:19:11;;;;;;;56.17;28.40;;;;;;;;;;4405891;32;20221;-86
2021/12/28 02:21:37;;;;;;;58.43;29.67;;;;;;;;;;4406138;32;20193;-86
2021/12/28 02:24:06;;;;;;;54.60;28.17;;;;;;;;;;4406041;32;20455;-84
2021/12/28 02:26:31;;;;;;;51.37;29.03;;;;;;;;;;4392182;32;20570;-79
2021/12/28 02:28:58;;;;;;;65.77;31.57;;;;;;;;;;4406695;32;20289;-84
2021/12/28 02:31:25;;;;;;;68.80;35.00;;;;;;;;;;4405847;32;20272;-86
2021/12/28 02:33:51;;;;;;;64.00;32.37;;;;;;;;;;4405577;32;20567;-86
2021/12/28 02:36:17;;;;;;;59.23;29.93;;;;;;;;;;4405902;32;20194;-86
2021/12/28 02:38:44;;;;;;;57.87;30.63;;;;;;;;;;4406072;32;20689;-80
2021/12/28 02:41:11;;;;;;;56.97;28.20;;;;;;;;;;4405720;32;20263;-80
2021/12/28 02:43:38;;;;;;;62.20;28.20;;;;;;;;;;4406246;32;20308;-82
2021/12/28 02:46:05;;;;;;;52.20;29.23;;;;;;;;;;4406380;32;20306;-81
2021/12/28 02:48:33;;;;;;;55.10;31.87;;;;;;;;;;4405974;32;20218;-79
2021/12/28 02:51:04;;;;;;;49.87;27.07;;;;;;;;;;4405673;32;20202;-79
2021/12/28 02:53:30;;;;;;;75.93;34.10;;;;;;;;;;4406049;32;20655;-80
2021/12/28 02:55:57;;;;;;;89.13;43.00;;;;;;;;;;4405574;32;20231;-80
2021/12/28 02:58:28;;;;;;;77.47;38.33;;;;;;;;;;4391725;32;20300;-79
2021/12/28 03:00:59;;;;;;;70.17;33.60;;;;;;;;;;4405986;32;20197;-85
2021/12/28 03:03:28;;;;;;;74.50;33.30;;;;;;;;;;4405683;32;20205;-79
2021/12/28 03:05:55;;;;;;;63.30;30.13;;;;;;;;;;4406094;32;20202;-86
2021/12/28 03:08:24;;;;;;;46.23;24.40;;;;;;;;;;4406259;32;20210;-79
2021/12/28 03:10:50;;;;;;;49.43;22.37;;;;;;;;;;4406060;32;20340;-86
2021/12/28 03:13:26;;;;;;;36.40;22.17;;;;;;;;;;4405443;32;20241;-80
2021/12/28 03:15:52;;;;;;;41.90;21.63;;;;;;;;;;4409026;32;20617;-81
2021/12/28 03:18:18;;;;;;;39.27;21.70;;;;;;;;;;4408596;32;20327;-80
2021/12/28 03:20:44;;;;;;;37.90;21.73;;;;;;;;;;4408568;32;20198;-80
2021/12/28 03:23:13;;;;;;;45.47;21.53;;;;;;;;;;4409062;32;20387;-85
2021/12/28 03:25:39;;;;;;;57.43;29.83;;;;;;;;;;4409036;32;20205;-79
2021/12/28 03:28:04;;;;;;;57.87;29.13;;;;;;;;;;4409520;32;20318;-86
2021/12/28 03:30:30;;;;;;;67.50;34.10;;;;;;;;;;4408280;32;20256;-79
2021/12/28 03:32:55;;;;;;;54.50;28.23;;;;;;;;;;4408349;32;20236;-79
2021/12/28 03:35:21;;;;;;;45.00;24.87;;;;;;;;;;4408553;32;20201;-80
2021/12/28 03:37:48;;;;;;;53.67;28.17;;;;;;;;;;4408624;32;20214;-80
2021/12/28 03:40:16;;;;;;;54.43;30.30;;;;;;;;;;4407973;32;20638;-80
2021/12/28 03:42:42;;;;;;;54.10;26.93;;;;;;;;;;4395074;32;20279;-80
2021/12/28 03:45:09;;;;;;;50.77;27.73;;;;;;;;;;4411138;32;20220;-81
2021/12/28 03:47:35;;;;;;;48.03;26.30;;;;;;;;;;4410504;32;20228;-80
2021/12/28 03:50:01;;;;;;;51.37;25.73;;;;;;;;;;4410711;32;20610;-87
2021/12/28 03:52:27;;;;;;;48.97;26.50;;;;;;;;;;4409932;32;20628;-81
2021/12/28 03:54:52;;;;;;;60.30;26.93;;;;;;;;;;4410726;32;20304;-82
2021/12/28 03:57:18;;;;;;;53.20;27.30;;;;;;;;;;4410994;32;20189;-79
2021/12/28 03:59:44;;;;;;;55.30;28.43;;;;;;;;;;4411437;32;20214;-84
2021/12/28 04:02:10;;;;;;;52.83;27.87;;;;;;;;;;4416479;32;20243;-80
2021/12/28 04:04:36;;;;;;;55.67;29.57;;;;;;;;;;4420568;32;20282;-86
2021/12/28 04:07:06;;;;;;;53.23;29.73;;;;;;;;;;4420963;32;20166;-84
2021/12/28 04:12:32;;;;;;;59.93;29.17;;;;;;;;;;4344164;33;20303;-85
2021/12/28 04:14:58;;;;;;;55.90;28.13;;;;;;;;;;4404686;32;20277;-82
2021/12/28 04:17:26;;;;;;;52.17;29.20;;;;;;;;;;4420800;32;20244;-87
2021/12/28 04:19:52;;;;;;;71.83;33.63;;;;;;;;;;4420462;32;20197;-86
2021/12/28 04:22:19;;;;;;;61.27;32.80;;;;;;;;;;4414893;32;20198;-85
2021/12/28 04:24:44;;;;;;;62.23;31.87;;;;;;;;;;4407817;32;20629;-86
2021/12/28 04:27:10;;;;;;;84.17;41.43;;;;;;;;;;4407765;32;20290;-84
2021/12/28 04:29:36;;;;;;;84.67;45.57;;;;;;;;;;4394421;32;20229;-85
2021/12/28 04:32:03;;;;;;;90.97;45.57;;;;;;;;;;4407714;32;20264;-86
2021/12/28 04:34:28;;;;;;;81.23;43.47;;;;;;;;;;4407602;32;20631;-86
2021/12/28 04:36:54;;;;;;;73.23;44.43;;;;;;;;;;4407868;32;20260;-84
2021/12/28 04:39:19;;;;;;;88.07;43.93;;;;;;;;;;4393758;32;20263;-86
2021/12/28 04:41:45;;;;;;;90.90;44.47;;;;;;;;;;4408189;32;20225;-86
2021/12/28 04:44:13;;;;;;;88.43;44.37;;;;;;;;;;4407359;32;20217;-84
2021/12/28 04:46:39;;;;;;;95.83;46.93;;;;;;;;;;4407325;32;20283;-83
2021/12/28 04:49:05;;;;;;;91.57;47.40;;;;;;;;;;4393359;32;20229;-84
2021/12/28 04:51:31;;;;;;;80.53;45.40;;;;;;;;;;4407382;32;20583;-83
2021/12/28 04:54:00;;;;;;;92.00;47.20;;;;;;;;;;4407423;32;20328;-82
2021/12/28 04:56:25;;;;;;;88.80;44.47;;;;;;;;;;4406907;32;20202;-86
2021/12/28 04:58:51;;;;;;;85.10;44.00;;;;;;;;;;4393114;32;20260;-87
2021/12/28 05:01:17;;;;;;;89.80;48.23;;;;;;;;;;4406790;32;20193;-81
2021/12/28 05:03:42;;;;;;;96.00;46.37;;;;;;;;;;4406974;32;20443;-81
2021/12/28 05:06:09;;;;;;;90.47;47.13;;;;;;;;;;4392927;32;20214;-81
2021/12/28 05:08:35;;;;;;;84.63;45.90;;;;;;;;;;4406752;32;20292;-87
2021/12/28 05:11:00;;;;;;;89.17;45.77;;;;;;;;;;4407022;32;20217;-80
2021/12/28 05:13:26;;;;;;;85.87;46.77;;;;;;;;;;4406971;32;20248;-84
2021/12/28 05:15:53;;;;;;;96.43;50.47;;;;;;;;;;4406789;32;20194;-82
2021/12/28 05:18:18;;;;;;;86.77;46.37;;;;;;;;;;4406473;32;20226;-79
2021/12/28 05:20:44;;;;;;;78.33;42.33;;;;;;;;;;4406589;32;20264;-83
2021/12/28 05:23:12;;;;;;;68.77;37.90;;;;;;;;;;4406416;32;20274;-85
2021/12/28 05:25:38;;;;;;;61.70;32.43;;;;;;;;;;4406455;32;20218;-83
2021/12/28 05:28:05;;;;;;;50.57;27.73;;;;;;;;;;4406500;32;20209;-80
2021/12/28 05:30:31;;;;;;;46.87;26.43;;;;;;;;;;4406916;32;20358;-85
2021/12/28 05:32:57;;;;;;;49.97;26.83;;;;;;;;;;4406995;32;20224;-80
2021/12/28 05:35:23;;;;;;;53.63;27.77;;;;;;;;;;4407343;32;20302;-84
2021/12/28 05:37:49;;;;;;;55.70;29.07;;;;;;;;;;4406614;32;20222;-85
2021/12/28 05:40:16;;;;;;;67.37;34.80;;;;;;;;;;4407673;32;20259;-86
2021/12/28 05:42:41;;;;;;;72.33;39.57;;;;;;;;;;4406841;32;20722;-80
2021/12/28 05:45:08;;;;;;;60.43;32.20;;;;;;;;;;4407139;32;20193;-80
2021/12/28 05:47:34;;;;;;;60.60;31.33;;;;;;;;;;4406964;32;20213;-86
2021/12/28 05:50:00;;;;;;;56.77;32.60;;;;;;;;;;4392769;32;20210;-80
2021/12/28 05:52:25;;;;;;;46.60;23.83;;;;;;;;;;4406584;32;20201;-80
2021/12/28 05:54:51;;;;;;;45.03;25.73;;;;;;;;;;4406365;32;20313;-79
2021/12/28 05:57:16;;;;;;;53.13;28.20;;;;;;;;;;4392850;32;20268;-81
2021/12/28 05:59:42;;;;;;;49.67;28.53;;;;;;;;;;4392890;32;20386;-82
2021/12/28 06:02:08;;;;;;;47.70;29.57;;;;;;;;;;4406569;32;20197;-86
2021/12/28 06:04:34;;;;;;;54.13;29.03;;;;;;;;;;4406622;32;20280;-80
2021/12/28 06:06:59;;;;;;;45.00;23.37;;;;;;;;;;4406334;32;20273;-82
2021/12/28 06:09:25;;;;;;;45.80;27.17;;;;;;;;;;4406596;32;20220;-80
2021/12/28 06:11:50;;;;;;;53.43;30.57;;;;;;;;;;4406920;32;20213;-81
2021/12/28 06:14:17;;;;;;;50.83;28.97;;;;;;;;;;4407856;32;20239;-86
2021/12/28 06:16:43;;;;;;;55.37;31.27;;;;;;;;;;4407994;32;20270;-86
2021/12/28 06:19:08;;;;;;;49.77;29.93;;;;;;;;;;4406605;32;20202;-86
2021/12/28 06:21:34;;;;;;;60.70;30.17;;;;;;;;;;4407002;32;20217;-80
2021/12/28 06:24:01;;;;;;;54.27;32.17;;;;;;;;;;4406593;32;20271;-86
2021/12/28 06:26:27;;;;;;;70.90;40.47;;;;;;;;;;4405981;32;20316;-80
2021/12/28 06:28:53;;;;;;;71.90;41.40;;;;;;;;;;4393126;32;20280;-86
2021/12/28 06:31:18;;;;;;;96.33;51.93;;;;;;;;;;4409230;32;20243;-80
2021/12/28 06:33:44;;;;;;;110.77;61.37;;;;;;;;;;4410634;32;20244;-85
2021/12/28 06:36:10;;;;;;;99.27;50.20;;;;;;;;;;4410272;32;20213;-86
2021/12/28 06:38:35;;;;;;;97.50;45.57;;;;;;;;;;4395986;32;20221;-85
2021/12/28 06:41:01;;;;;;;122.03;54.57;;;;;;;;;;4411052;32;20205;-80
2021/12/28 06:43:26;;;;;;;120.30;60.83;;;;;;;;;;4409950;32;20416;-81
2021/12/28 06:45:54;;;;;;;145.23;65.83;;;;;;;;;;4394208;32;20218;-85
2021/12/28 06:48:22;;;;;;;143.87;62.80;;;;;;;;;;4406347;32;20251;-83
2021/12/28 06:50:49;;;;;;;148.63;60.23;;;;;;;;;;4409944;32;20223;-87
2021/12/28 06:53:15;;;;;;;150.87;71.83;;;;;;;;;;4409802;32;20300;-85
2021/12/28 06:55:40;;;;;;;152.87;69.43;;;;;;;;;;4408634;32;20225;-83
2021/12/28 06:58:06;;;;;;;119.23;60.23;;;;;;;;;;4394683;32;20245;-85
2021/12/28 07:00:32;;;;;;;146.97;67.40;;;;;;;;;;4410269;32;20659;-86
2021/12/28 07:02:57;;;;;;;119.80;61.37;;;;;;;;;;4409661;32;20221;-83
2021/12/28 07:05:23;;;;;;;132.23;59.40;;;;;;;;;;4409157;32;20276;-81
2021/12/28 07:07:49;;;;;;;133.87;55.40;;;;;;;;;;4409133;32;20221;-87
2021/12/28 07:10:14;;;;;;;139.87;57.80;;;;;;;;;;4409417;32;20365;-84
2021/12/28 07:12:41;;;;;;;153.10;69.27;;;;;;;;;;4410625;32;20231;-87
2021/12/28 07:15:07;;;;;;;144.13;65.93;;;;;;;;;;4409212;32;20221;-86
2021/12/28 07:17:33;;;;;;;146.40;70.57;;;;;;;;;;4394421;32;20281;-80
2021/12/28 07:19:58;;;;;;;150.33;69.60;;;;;;;;;;4408466;32;20220;-81
2021/12/28 07:22:24;;;;;;;149.83;70.70;;;;;;;;;;4409070;32;20205;-83
2021/12/28 07:24:49;;;;;;;131.83;66.33;;;;;;;;;;4409645;32;20285;-85
2021/12/28 07:27:15;;;;;;;135.10;68.07;;;;;;;;;;4409189;32;20209;-86
2021/12/28 07:29:40;;;;;;;162.97;80.53;;;;;;;;;;4409182;32;20216;-86
2021/12/28 07:32:08;;;;;;;156.43;73.20;;;;;;;;;;4409002;32;20224;-84
2021/12/28 07:34:35;;;;;;;149.20;78.53;;;;;;;;;;4408920;32;20275;-81
2021/12/28 07:37:01;;;;;;;148.77;82.17;;;;;;;;;;4409052;32;20198;-86
2021/12/28 07:39:27;;;;;;;212.07;104.07;;;;;;;;;;4409159;32;20270;-82
2021/12/28 07:41:52;;;;;;;184.40;98.00;;;;;;;;;;4409878;32;20237;-86
2021/12/28 07:44:21;;;;;;;159.57;77.47;;;;;;;;;;4409011;32;20229;-80
2021/12/28 07:46:47;;;;;;;104.00;56.03;;;;;;;;;;4395026;32;20559;-84
2021/12/28 07:49:13;;;;;;;116.63;58.60;;;;;;;;;;4408600;32;20307;-80
2021/12/28 07:51:40;;;;;;;125.07;61.30;;;;;;;;;;4408712;32;20228;-80
2021/12/28 07:54:06;;;;;;;150.63;79.43;;;;;;;;;;4409124;32;20243;-80
2021/12/28 07:56:32;;;;;;;173.10;85.23;;;;;;;;;;4394199;32;20280;-83
2021/12/28 07:58:57;;;;;;;179.13;93.50;;;;;;;;;;4408482;32;20217;-80
2021/12/28 08:01:23;;;;;;;169.17;90.97;;;;;;;;;;4407506;32;20276;-80
2021/12/28 08:03:48;;;;;;;189.67;96.87;;;;;;;;;;4407944;32;20371;-84
2021/12/28 08:06:15;;;;;;;167.63;88.83;;;;;;;;;;4408463;32;20265;-81
2021/12/28 08:08:40;;;;;;;192.80;100.17;;;;;;;;;;4408187;32;20220;-86
2021/12/28 08:11:06;;;;;;;185.73;98.10;;;;;;;;;;4394905;32;20255;-82
2021/12/28 08:13:31;;;;;;;173.77;96.23;;;;;;;;;;4408201;32;20223;-86
2021/12/28 08:15:57;;;;;;;145.57;80.93;;;;;;;;;;4407538;32;20236;-80
2021/12/28 08:18:22;;;;;;;147.90;81.27;;;;;;;;;;4408001;32;20335;-86
2021/12/28 08:20:48;;;;;;;162.40;89.50;;;;;;;;;;4413548;32;20217;-80
2021/12/28 08:23:13;;;;;;;159.13;87.57;;;;;;;;;;4399205;32;20245;-87
2021/12/28 08:25:41;;;;;;;142.20;80.60;;;;;;;;;;4413528;32;20229;-79
2021/12/28 08:28:07;;;;;;;163.97;84.87;;;;;;;;;;4411195;32;20224;-79
2021/12/28 08:30:36;;;;;;;147.83;80.20;;;;;;;;;;4409703;32;20222;-81
2021/12/28 08:33:04;;;;;;;162.63;84.83;;;;;;;;;;4410288;32;20519;-86
2021/12/28 08:35:29;;;;;;;141.57;75.33;;;;;;;;;;4393765;32;20241;-85
2021/12/28 08:37:56;;;;;;;152.27;87.30;;;;;;;;;;4394567;32;20227;-81
2021/12/28 08:40:23;;;;;;;164.73;81.97;;;;;;;;;;4407938;32;20225;-86
2021/12/28 08:42:49;;;;;;;142.10;74.17;;;;;;;;;;4407899;32;20197;-81
2021/12/28 08:45:15;;;;;;;120.47;65.27;;;;;;;;;;4407297;32;20319;-83
2021/12/28 08:47:41;;;;;;;116.17;59.77;;;;;;;;;;4407404;32;20222;-82
2021/12/28 08:50:08;;;;;;;137.63;62.07;;;;;;;;;;4407832;32;20552;-81
2021/12/28 08:52:35;;;;;;;94.30;46.20;;;;;;;;;;4408257;32;20247;-80
2021/12/28 08:55:02;;;;;;;113.10;54.77;;;;;;;;;;4393953;32;20259;-84
2021/12/28 08:57:28;;;;;;;95.60;41.87;;;;;;;;;;4394042;32;20319;-86
2021/12/28 08:59:54;;;;;;;92.60;41.53;;;;;;;;;;4380831;32;20256;-80
2021/12/28 09:02:20;;;;;;;79.03;33.97;;;;;;;;;;4406464;32;20225;-85
2021/12/28 09:04:46;;;;;;;75.80;34.63;;;;;;;;;;4407050;32;20293;-86
2021/12/28 09:07:16;;;;;;;74.20;33.53;;;;;;;;;;4407500;32;20248;-82
2021/12/28 09:09:43;;;;;;;74.00;33.63;;;;;;;;;;4406743;32;20223;-83
2021/12/28 09:12:09;;;;;;;78.07;32.27;;;;;;;;;;4407319;32;20274;-82
2021/12/28 09:14:35;;;;;;;48.90;23.90;;;;;;;;;;4394148;32;20221;-80
2021/12/28 09:17:01;;;;;;;67.30;36.50;;;;;;;;;;4407090;32;20273;-86
2021/12/28 09:19:27;;;;;;;73.47;33.07;;;;;;;;;;4394060;32;20247;-81
2021/12/28 09:21:53;;;;;;;67.03;34.47;;;;;;;;;;4406954;32;20319;-80
2021/12/28 09:24:19;;;;;;;71.03;33.23;;;;;;;;;;4406840;32;20515;-82
2021/12/28 09:26:44;;;;;;;80.43;39.03;;;;;;;;;;4406115;32;20229;-83
2021/12/28 09:29:10;;;;;;;90.87;44.37;;;;;;;;;;4406402;32;20198;-86
2021/12/28 09:31:36;;;;;;;79.83;39.03;;;;;;;;;;4406054;32;20221;-81
2021/12/28 09:34:01;;;;;;;68.70;36.43;;;;;;;;;;4406591;32;20197;-86
2021/12/28 09:36:28;;;;;;;69.27;36.07;;;;;;;;;;4406499;32;20272;-86
2021/12/28 09:38:53;;;;;;;80.33;41.03;;;;;;;;;;4393496;32;20300;-84
2021/12/28 09:41:19;;;;;;;73.17;39.77;;;;;;;;;;4407814;32;20297;-81
2021/12/28 09:43:44;;;;;;;73.73;38.77;;;;;;;;;;4405730;32;20628;-80
2021/12/28 09:46:11;;;;;;;108.33;60.43;;;;;;;;;;4405597;32;20293;-85
2021/12/28 09:48:37;;;;;;;73.57;40.03;;;;;;;;;;4391959;32;20237;-84
2021/12/28 09:51:04;;;;;;;63.60;32.87;;;;;;;;;;4406899;32;20625;-86
2021/12/28 09:53:30;;;;;;;63.70;33.57;;;;;;;;;;4405925;32;20256;-88
2021/12/28 09:55:55;;;;;;;95.23;49.43;;;;;;;;;;4405930;32;20213;-82
2021/12/28 09:58:21;;;;;;;79.13;44.57;;;;;;;;;;4405967;32;20198;-81
2021/12/28 10:00:47;;;;;;;64.07;36.47;;;;;;;;;;4405759;32;20527;-80
2021/12/28 10:03:14;;;;;;;75.37;41.63;;;;;;;;;;4392755;32;20352;-80
2021/12/28 10:05:40;;;;;;;72.77;41.73;;;;;;;;;;4405784;32;20549;-81
2021/12/28 10:08:06;;;;;;;123.53;53.33;;;;;;;;;;4406990;32;20198;-81
2021/12/28 10:10:41;;;;;;;41.20;22.37;;;;;;;;;;4405642;32;20264;-80
2021/12/28 10:13:16;;;;;;;36.73;20.23;;;;;;;;;;4406269;32;20197;-85
2021/12/28 10:15:43;;;;;;;141.70;57.00;;;;;;;;;;4405828;32;20697;-82
2021/12/28 10:18:11;;;;;;;60.87;26.63;;;;;;;;;;4407072;32;20228;-86
2021/12/28 10:21:03;;;;;;;35.40;18.67;;;;;;;;;;4406078;32;20500;-81
2021/12/28 10:23:31;;;;;;;24.83;13.53;;;;;;;;;;4406297;32;20216;-85
2021/12/28 10:26:00;;;;;;;19.37;13.13;;;;;;;;;;4408972;32;20578;-80
2021/12/28 10:28:32;;;;;;;30.10;17.77;;;;;;;;;;4408990;32;20611;-86
2021/12/28 10:31:05;;;;;;;42.07;21.90;;;;;;;;;;4410794;32;20209;-78
2021/12/28 10:33:34;;;;;;;38.77;21.30;;;;;;;;;;4409152;32;20251;-80
2021/12/28 10:36:07;;;;;;;31.93;19.33;;;;;;;;;;4410105;32;20221;-86
2021/12/28 10:38:36;;;;;;;30.13;18.27;;;;;;;;;;4397362;32;20372;-86
2021/12/28 10:41:09;;;;;;;39.43;21.37;;;;;;;;;;4411661;32;20252;-83
2021/12/28 10:43:40;;;;;;;44.67;26.07;;;;;;;;;;4409638;32;20198;-80
2021/12/28 10:46:09;;;;;;;37.67;23.50;;;;;;;;;;4409747;32;20274;-86
2021/12/28 10:48:39;;;;;;;44.90;23.87;;;;;;;;;;4411373;32;20194;-81
2021/12/28 10:51:12;;;;;;;44.87;27.13;;;;;;;;;;4410201;32;20283;-80
2021/12/28 10:56:35;;;;;;;32.40;17.63;;;;;;;;;;4409266;32;20217;-82
2021/12/28 10:59:02;;;;;;;31.67;19.40;;;;;;;;;;4409778;32;20590;-81
2021/12/28 11:01:32;;;;;;;25.17;13.73;;;;;;;;;;4410033;32;20217;-86
2021/12/28 11:04:00;;;;;;;33.77;21.53;;;;;;;;;;4410642;32;20216;-80
2021/12/28 11:06:31;;;;;;;160.87;74.20;;;;;;;;;;4401947;32;20229;-85
2021/12/28 11:09:00;;;;;;;89.97;47.80;;;;;;;;;;4415568;32;20274;-80
2021/12/28 11:11:27;;;;;;;44.43;25.70;;;;;;;;;;4414712;32;20278;-81
2021/12/28 11:14:16;;;;;;;42.03;23.47;;;;;;;;;;4399267;32;20330;-79
2021/12/28 11:16:48;;;;;;;29.03;15.87;;;;;;;;;;4413857;32;20217;-78
2021/12/28 11:19:26;;;;;;;22.87;13.63;;;;;;;;;;4419305;32;20217;-85
2021/12/28 11:21:55;;;;;;;22.97;14.73;;;;;;;;;;4415179;32;20266;-85
2021/12/28 11:24:21;;;;;;;20.73;13.33;;;;;;;;;;4403915;32;20248;-86
2021/12/28 11:26:48;;;;;;;33.93;18.03;;;;;;;;;;4417095;32;20263;-85
2021/12/28 11:29:22;;;;;;;26.70;15.87;;;;;;;;;;4401791;32;20229;-85
2021/12/28 11:31:53;;;;;;;31.87;17.17;;;;;;;;;;4414590;32;20753;-85
2021/12/28 11:34:27;;;;;;;28.40;16.43;;;;;;;;;;4415999;32;20193;-86
2021/12/28 11:36:54;;;;;;;32.67;19.03;;;;;;;;;;4411644;32;20303;-86
2021/12/28 11:39:27;;;;;;;27.93;16.37;;;;;;;;;;4409713;32;20636;-87
2021/12/28 11:41:53;;;;;;;31.43;17.43;;;;;;;;;;4408935;32;20213;-83
2021/12/28 11:44:20;;;;;;;31.67;16.00;;;;;;;;;;4409091;32;20201;-84
2021/12/28 11:46:47;;;;;;;24.47;13.97;;;;;;;;;;4408419;32;20221;-80
2021/12/28 11:49:14;;;;;;;22.00;13.17;;;;;;;;;;4408796;32;20291;-81
2021/12/28 11:51:44;;;;;;;22.90;12.93;;;;;;;;;;4409056;32;20221;-82
2021/12/28 11:54:12;;;;;;;27.37;15.03;;;;;;;;;;4407949;32;20280;-85
2021/12/28 11:56:42;;;;;;;33.70;15.97;;;;;;;;;;4407966;32;20589;-86
2021/12/28 11:59:20;;;;;;;33.40;15.77;;;;;;;;;;4408451;32;20670;-81
2021/12/28 12:01:51;;;;;;;22.10;12.77;;;;;;;;;;4408603;32;20280;-87
2021/12/28 12:04:35;;;;;;;25.30;13.30;;;;;;;;;;4408291;32;20247;-86
2021/12/28 12:07:06;;;;;;;28.27;14.07;;;;;;;;;;4407943;32;20245;-83
2021/12/28 12:09:34;;;;;;;22.37;15.23;;;;;;;;;;4408378;32;20189;-86
2021/12/28 12:12:10;;;;;;;32.17;17.43;;;;;;;;;;4407736;32;20323;-86
2021/12/28 12:14:55;;;;;;;35.67;21.83;;;;;;;;;;4407877;32;20231;-83
2021/12/28 12:17:39;;;;;;;33.33;19.80;;;;;;;;;;4408075;32;20243;-81
2021/12/28 12:20:19;;;;;;;35.03;20.63;;;;;;;;;;4407856;32;20267;-82
2021/12/28 12:22:52;;;;;;;32.23;19.27;;;;;;;;;;4407657;32;20274;-84
2021/12/28 12:25:21;;;;;;;26.60;14.77;;;;;;;;;;4393419;32;20244;-81
2021/12/28 12:27:53;;;;;;;36.83;22.83;;;;;;;;;;4407546;32;20630;-81
2021/12/28 12:30:21;;;;;;;36.93;17.27;;;;;;;;;;4394489;32;20416;-82
2021/12/28 12:32:58;;;;;;;28.37;15.53;;;;;;;;;;4407853;32;20231;-82
2021/12/28 12:35:46;;;;;;;28.33;16.03;;;;;;;;;;4407628;32;20221;-81
2021/12/28 12:38:14;;;;;;;29.60;18.20;;;;;;;;;;4408896;32;20215;-82
2021/12/28 12:41:11;;;;;;;69.20;31.30;;;;;;;;;;4407297;32;20225;-86
2021/12/28 12:43:39;;;;;;;60.47;32.30;;;;;;;;;;4407348;32;20198;-81
2021/12/28 12:46:37;;;;;;;130.07;65.90;;;;;;;;;;4407491;32;20237;-85
2021/12/28 12:49:05;;;;;;;51.00;27.00;;;;;;;;;;4407259;32;20185;-86
2021/12/28 12:51:54;;;;;;;23.00;12.30;;;;;;;;;;4407228;32;20263;-82
2021/12/28 12:54:25;;;;;;;24.30;13.67;;;;;;;;;;4407328;32;20239;-81
2021/12/28 12:56:51;;;;;;;16.63;10.40;;;;;;;;;;4407613;32;20225;-79
2021/12/28 12:59:16;;;;;;;20.70;11.10;;;;;;;;;;4406534;32;20625;-82
2021/12/28 13:01:42;;;;;;;20.83;13.23;;;;;;;;;;4406836;32;20229;-82
2021/12/28 13:04:25;;;;;;;24.47;14.77;;;;;;;;;;4407068;32;20214;-85
2021/12/28 13:07:04;;;;;;;20.60;11.40;;;;;;;;;;4406970;32;20225;-86
2021/12/28 13:09:32;;;;;;;18.33;12.13;;;;;;;;;;4407096;32;20226;-86
2021/12/28 13:11:59;;;;;;;23.63;14.03;;;;;;;;;;4407823;32;20225;-84
2021/12/28 13:14:25;;;;;;;19.83;13.00;;;;;;;;;;4392811;32;20217;-81
2021/12/28 13:17:00;;;;;;;19.90;12.57;;;;;;;;;;4406615;32;20251;-84
2021/12/28 13:19:26;;;;;;;20.23;12.80;;;;;;;;;;4406447;32;20219;-86
2021/12/28 13:22:05;;;;;;;42.67;25.97;;;;;;;;;;4406422;32;20528;-80
2021/12/28 13:24:31;;;;;;;30.00;18.43;;;;;;;;;;4406318;32;20601;-79
2021/12/28 13:27:01;;;;;;;33.33;18.43;;;;;;;;;;4406267;32;20229;-78
2021/12/28 13:29:38;;;;;;;28.07;17.57;;;;;;;;;;4406558;32;20596;-83
2021/12/28 13:32:26;;;;;;;37.97;19.97;;;;;;;;;;4393078;32;20563;-83
2021/12/28 13:35:12;;;;;;;42.20;20.03;;;;;;;;;;4392513;32;20240;-85
2021/12/28 13:37:47;;;;;;;54.30;28.30;;;;;;;;;;4406747;32;20225;-83
2021/12/28 13:40:27;;;;;;;31.20;18.07;;;;;;;;;;4407211;32;20274;-84
2021/12/28 13:42:59;;;;;;;34.03;21.73;;;;;;;;;;4406865;32;20639;-83
2021/12/28 13:45:40;;;;;;;35.90;19.40;;;;;;;;;;4406395;32;20205;-82
2021/12/28 13:48:26;;;;;;;41.53;21.13;;;;;;;;;;4406459;32;20259;-83
2021/12/28 13:51:00;;;;;;;34.83;21.30;;;;;;;;;;4393943;32;20229;-82
2021/12/28 13:53:28;;;;;;;39.20;21.50;;;;;;;;;;4406396;32;20190;-83
2021/12/28 13:56:00;;;;;;;42.97;21.50;;;;;;;;;;4406683;32;20387;-85
2021/12/28 13:58:37;;;;;;;41.87;20.17;;;;;;;;;;4405601;32;20313;-85
2021/12/28 14:01:26;;;;;;;51.17;27.03;;;;;;;;;;4392666;32;20281;-81
2021/12/28 14:04:08;;;;;;;40.57;23.93;;;;;;;;;;4405124;32;20222;-82
2021/12/28 14:06:37;;;;;;;40.10;22.67;;;;;;;;;;4391974;32;20221;-83
2021/12/28 14:09:05;;;;;;;54.60;27.00;;;;;;;;;;4391942;32;20222;-82
2021/12/28 14:11:45;;;;;;;58.67;33.30;;;;;;;;;;4405675;32;20332;-85
2021/12/28 14:14:26;;;;;;;54.80;33.30;;;;;;;;;;4392151;32;20286;-81
2021/12/28 14:17:09;;;;;;;52.30;31.23;;;;;;;;;;4405698;32;20557;-81
2021/12/28 14:19:37;;;;;;;63.63;35.40;;;;;;;;;;4405683;32;20593;-79
2021/12/28 14:22:09;;;;;;;68.87;37.70;;;;;;;;;;4405577;32;20257;-86
2021/12/28 14:24:34;;;;;;;68.13;37.23;;;;;;;;;;4405658;32;20201;-81
2021/12/28 14:27:00;;;;;;;67.40;38.67;;;;;;;;;;4405439;32;20438;-83
2021/12/28 14:29:28;;;;;;;72.37;42.27;;;;;;;;;;4405750;32;20197;-85